Time;durP1;ratioP1;P1;durP2;ratioP2;P2;SDS_P1;SDS_P2;PMS_P1;PMS_P2;Temp;Humidity;BMP_temperature;BMP_pressure;BME280_temperature;BME280_humidity;BME280_pressure;Samples;Min_cycle;Max_cycle;Signal;HPM_P1;HPM_P2
2022/07/06 00:01:34;;;;;;;0.73;0.60;;;17.40;67.20;;;;;;6229917;23;20015;-68
2022/07/06 00:04:02;;;;;;;1.42;0.80;;;17.40;67.30;;;;;;6230491;23;20032;-67
2022/07/06 00:06:28;;;;;;;1.77;0.98;;;17.40;67.50;;;;;;6231748;23;20012;-67
2022/07/06 00:08:53;;;;;;;0.80;0.68;;;17.40;67.50;;;;;;6233492;22;20400;-67
2022/07/06 00:11:20;;;;;;;3.45;0.80;;;17.40;67.60;;;;;;6232109;23;20012;-67
2022/07/06 00:13:45;;;;;;;0.98;0.60;;;17.40;67.60;;;;;;6231454;23;20042;-67
2022/07/06 00:16:11;;;;;;;1.92;0.80;;;17.40;68.10;;;;;;6232066;23;20008;-69
2022/07/06 00:18:37;;;;;;;1.63;0.63;;;17.40;68.10;;;;;;6231252;23;20058;-67
2022/07/06 00:21:03;;;;;;;1.00;0.60;;;17.40;68.40;;;;;;6232528;23;20104;-67
2022/07/06 00:23:29;;;;;;;0.68;0.60;;;17.30;68.40;;;;;;6242526;23;20753;-67
2022/07/06 00:25:54;;;;;;;2.50;0.90;;;17.30;68.80;;;;;;6242839;23;20008;-67
2022/07/06 00:28:20;;;;;;;0.82;0.70;;;17.30;68.90;;;;;;6241967;23;20016;-67
2022/07/06 00:30:46;;;;;;;1.25;0.80;;;17.30;68.70;;;;;;6242407;23;20011;-67
2022/07/06 00:33:12;;;;;;;0.60;0.60;;;17.30;68.90;;;;;;6231715;23;20004;-67
2022/07/06 00:35:38;;;;;;;3.15;1.00;;;17.20;69.10;;;;;;6241264;23;20011;-67
2022/07/06 00:38:04;;;;;;;2.22;1.02;;;17.20;69.30;;;;;;6204101;23;20012;-67
2022/07/06 00:40:30;;;;;;;2.33;0.90;;;17.20;69.60;;;;;;6231890;23;20058;-67
2022/07/06 00:42:56;;;;;;;1.50;0.80;;;17.10;69.70;;;;;;6204905;23;20012;-67
2022/07/06 00:45:22;;;;;;;4.10;0.90;;;17.10;69.90;;;;;;6204790;23;20346;-67
2022/07/06 00:47:48;;;;;;;1.65;0.73;;;17.10;70.00;;;;;;6204857;23;20485;-67
2022/07/06 00:50:22;;;;;;;1.42;0.80;;;17.00;70.30;;;;;;6204123;23;20016;-67
2022/07/06 00:52:50;;;;;;;1.58;0.80;;;16.90;70.60;;;;;;6229984;23;20019;-67
2022/07/06 00:55:18;;;;;;;2.50;1.02;;;16.80;70.80;;;;;;6241141;23;20004;-67
2022/07/06 00:57:44;;;;;;;1.45;0.90;;;16.80;71.00;;;;;;6240832;23;20387;-67
2022/07/06 01:00:12;;;;;;;1.60;0.80;;;16.80;71.20;;;;;;6228981;23;20474;-67
2022/07/06 01:02:38;;;;;;;2.63;0.90;;;16.70;71.60;;;;;;6204422;23;20012;-67
2022/07/06 01:05:06;;;;;;;1.05;0.80;;;16.70;72.10;;;;;;6204100;23;20016;-67
2022/07/06 01:07:34;;;;;;;1.55;0.70;;;16.70;72.30;;;;;;6229252;23;20016;-67
2022/07/06 01:10:01;;;;;;;1.77;0.90;;;16.60;72.60;;;;;;6203538;23;20012;-67
2022/07/06 01:12:27;;;;;;;0.80;0.80;;;16.70;73.00;;;;;;6203111;23;20094;-67
2022/07/06 01:14:53;;;;;;;1.38;0.65;;;16.70;73.10;;;;;;6228694;23;20032;-67
2022/07/06 01:17:19;;;;;;;2.33;0.90;;;16.60;73.20;;;;;;6203478;23;20485;-67
2022/07/06 01:19:45;;;;;;;1.05;0.95;;;16.70;73.50;;;;;;6231204;23;20026;-67
2022/07/06 01:22:10;;;;;;;1.17;0.85;;;16.70;74.30;;;;;;6241506;23;20538;-67
2022/07/06 01:24:37;;;;;;;2.05;1.00;;;16.80;73.70;;;;;;6204286;23;20171;-67
2022/07/06 01:27:04;;;;;;;1.58;0.95;;;16.80;73.80;;;;;;6241703;23;20027;-66
2022/07/06 01:29:34;;;;;;;0.63;0.60;;;16.80;74.00;;;;;;6241111;23;20036;-67
2022/07/06 01:32:00;;;;;;;1.77;0.77;;;16.80;74.10;;;;;;6241947;23;20064;-67
2022/07/06 01:34:26;;;;;;;2.03;0.90;;;16.80;74.30;;;;;;6204875;23;20065;-67
2022/07/06 01:36:52;;;;;;;1.05;0.65;;;16.90;74.70;;;;;;6231869;23;20513;-68
2022/07/06 01:39:18;;;;;;;1.67;0.70;;;16.90;74.90;;;;;;6230937;23;20008;-67
2022/07/06 01:41:44;;;;;;;1.67;0.60;;;17.00;75.10;;;;;;6204129;23;20018;-67
2022/07/06 01:44:11;;;;;;;3.05;0.70;;;17.00;74.90;;;;;;6241900;23;20418;-67
2022/07/06 01:46:38;;;;;;;4.28;0.75;;;17.10;74.80;;;;;;6204338;23;20549;-67
2022/07/06 01:49:05;;;;;;;2.58;0.98;;;17.10;74.60;;;;;;6203916;23;20581;-66
2022/07/06 01:51:32;;;;;;;0.60;0.60;;;17.20;74.50;;;;;;6231266;23;20016;-67
2022/07/06 01:53:59;;;;;;;3.72;0.90;;;17.20;74.40;;;;;;6203121;23;20004;-67
2022/07/06 01:56:25;;;;;;;1.10;0.80;;;17.20;74.20;;;;;;6202994;23;20059;-67
2022/07/06 01:58:57;;;;;;;1.08;0.60;;;17.30;74.90;;;;;;6203294;23;20012;-67
2022/07/06 02:01:23;;;;;;;2.40;0.98;;;17.30;75.70;;;;;;6240803;23;20008;-67
2022/07/06 02:03:49;;;;;;;0.70;0.60;;;17.40;76.20;;;;;;6202925;23;20008;-67
2022/07/06 02:06:16;;;;;;;0.63;0.60;;;17.40;76.40;;;;;;6203471;23;20438;-67
2022/07/06 02:08:42;;;;;;;2.30;0.93;;;17.50;76.40;;;;;;6201982;23;20043;-67
2022/07/06 02:11:10;;;;;;;2.47;0.90;;;17.50;76.40;;;;;;6203390;23;20334;-67
2022/07/06 02:13:38;;;;;;;2.55;0.80;;;17.50;76.00;;;;;;6178703;23;20015;-68
2022/07/06 02:16:06;;;;;;;0.82;0.70;;;17.50;76.00;;;;;;6203008;23;20007;-67
2022/07/06 02:18:32;;;;;;;2.15;0.85;;;17.50;76.10;;;;;;6202467;23;20028;-67
2022/07/06 02:20:57;;;;;;;2.17;0.70;;;17.50;76.00;;;;;;6203976;23;20008;-69
2022/07/06 02:23:23;;;;;;;2.28;1.00;;;17.50;75.70;;;;;;6178454;23;20069;-68
2022/07/06 02:25:51;;;;;;;1.15;0.82;;;17.60;75.50;;;;;;6229422;23;20019;-67
2022/07/06 02:28:17;;;;;;;2.55;0.80;;;17.60;75.50;;;;;;6204523;23;20020;-67
2022/07/06 02:30:43;;;;;;;1.70;0.80;;;17.60;75.70;;;;;;6206122;23;20541;-67
2022/07/06 02:33:11;;;;;;;1.00;0.80;;;17.70;76.00;;;;;;6206042;23;20020;-67
2022/07/06 02:35:41;;;;;;;0.90;0.73;;;17.70;76.10;;;;;;6205795;23;20000;-67
2022/07/06 02:38:09;;;;;;;1.13;0.80;;;17.70;76.10;;;;;;6240233;23;20008;-67
2022/07/06 02:40:35;;;;;;;1.42;0.80;;;17.70;75.80;;;;;;6230771;23;20004;-67
2022/07/06 02:43:01;;;;;;;0.98;0.88;;;17.70;75.40;;;;;;6203431;23;20044;-67
2022/07/06 02:45:27;;;;;;;1.52;0.93;;;17.70;75.00;;;;;;6204387;23;20015;-67
2022/07/06 02:47:55;;;;;;;2.50;0.93;;;17.80;75.90;;;;;;6204228;23;20012;-68
2022/07/06 02:50:22;;;;;;;3.38;0.80;;;17.70;76.30;;;;;;6203435;23;20348;-67
2022/07/06 02:52:48;;;;;;;2.28;0.80;;;17.70;76.20;;;;;;6241919;23;20004;-67
2022/07/06 02:55:14;;;;;;;1.42;0.85;;;17.70;76.20;;;;;;6204276;23;20074;-68
2022/07/06 02:57:41;;;;;;;2.65;1.20;;;17.60;76.20;;;;;;6204572;23;20353;-68
2022/07/06 03:00:09;;;;;;;3.50;0.90;;;17.60;76.60;;;;;;6204630;23;20008;-67
2022/07/06 03:02:35;;;;;;;3.28;1.00;;;17.60;76.70;;;;;;6204139;23;20725;-67
2022/07/06 03:05:02;;;;;;;1.85;1.00;;;17.70;77.00;;;;;;6203333;23;20016;-67
2022/07/06 03:07:29;;;;;;;1.63;1.05;;;17.70;77.00;;;;;;6204340;23;20016;-67
2022/07/06 03:09:54;;;;;;;1.70;1.00;;;17.60;77.20;;;;;;6227716;23;20073;-67
2022/07/06 03:12:20;;;;;;;1.83;1.02;;;17.60;77.30;;;;;;6231662;23;20061;-67
2022/07/06 03:14:46;;;;;;;1.25;0.80;;;17.50;77.40;;;;;;6241995;23;20019;-68
2022/07/06 03:17:12;;;;;;;1.50;0.90;;;17.50;77.20;;;;;;6232009;23;20009;-67
2022/07/06 03:19:38;;;;;;;3.03;0.90;;;17.50;76.90;;;;;;6204418;23;20358;-67
2022/07/06 03:22:04;;;;;;;4.30;1.08;;;17.40;76.70;;;;;;6205261;23;20004;-67
2022/07/06 03:24:30;;;;;;;0.90;0.80;;;17.30;76.80;;;;;;6241896;23;20008;-67
2022/07/06 03:26:56;;;;;;;1.80;0.80;;;17.30;77.10;;;;;;6231758;23;20499;-67
2022/07/06 03:29:22;;;;;;;3.03;1.00;;;17.30;77.20;;;;;;6205069;23;20011;-67
2022/07/06 03:31:48;;;;;;;5.25;1.13;;;17.30;77.40;;;;;;6205928;23;20353;-67
2022/07/06 03:34:15;;;;;;;0.75;0.70;;;17.20;77.50;;;;;;6205202;23;20015;-67
2022/07/06 03:36:41;;;;;;;2.88;1.17;;;17.30;77.50;;;;;;6205366;23;20004;-67
2022/07/06 03:39:08;;;;;;;2.55;0.98;;;17.30;77.40;;;;;;6205009;23;20004;-68
2022/07/06 03:41:35;;;;;;;2.80;1.00;;;17.30;77.30;;;;;;6205677;23;20087;-67
2022/07/06 03:44:02;;;;;;;3.53;0.80;;;17.30;77.50;;;;;;6243299;23;20424;-68
2022/07/06 03:46:29;;;;;;;5.72;0.98;;;17.30;77.40;;;;;;6205489;23;20004;-67
2022/07/06 03:48:55;;;;;;;1.30;0.80;;;17.40;77.40;;;;;;6242418;23;20122;-67
2022/07/06 03:51:21;;;;;;;3.95;1.05;;;17.40;77.40;;;;;;6204991;23;20079;-67
2022/07/06 03:53:47;;;;;;;2.63;1.00;;;17.50;76.70;;;;;;6205648;23;20012;-68
2022/07/06 03:56:28;;;;;;;2.85;0.82;;;17.50;76.60;;;;;;6205328;23;20008;-67
2022/07/06 03:59:00;;;;;;;3.38;1.00;;;17.50;75.90;;;;;;6230027;23;20008;-67
2022/07/06 04:01:26;;;;;;;2.75;1.20;;;17.60;75.20;;;;;;6242359;23;20004;-67
2022/07/06 04:03:52;;;;;;;2.70;0.90;;;17.60;74.60;;;;;;6241985;23;20119;-67
2022/07/06 04:06:19;;;;;;;4.47;1.00;;;17.70;74.00;;;;;;6204948;23;20062;-67
2022/07/06 04:08:45;;;;;;;2.30;1.00;;;17.70;73.20;;;;;;6230794;23;20004;-67
2022/07/06 04:11:11;;;;;;;2.20;0.80;;;17.70;72.90;;;;;;6205044;23;20004;-68
2022/07/06 04:13:38;;;;;;;4.05;1.05;;;17.80;72.90;;;;;;6205242;23;20023;-67
2022/07/06 04:16:06;;;;;;;2.97;1.00;;;17.80;73.00;;;;;;6204026;23;20004;-68
2022/07/06 04:18:32;;;;;;;2.75;0.75;;;17.90;72.80;;;;;;6231011;23;20004;-67
2022/07/06 04:20:58;;;;;;;5.20;0.70;;;17.90;72.20;;;;;;6204508;23;20023;-67
2022/07/06 04:23:25;;;;;;;2.30;0.70;;;17.90;72.10;;;;;;6204162;23;20685;-67
2022/07/06 04:25:54;;;;;;;1.05;0.77;;;17.90;72.00;;;;;;6203777;23;20506;-67
2022/07/06 04:28:19;;;;;;;4.00;0.88;;;17.90;72.10;;;;;;6240127;23;20022;-67
2022/07/06 04:30:45;;;;;;;2.22;0.85;;;17.90;72.60;;;;;;6203362;23;20086;-67
2022/07/06 04:33:16;;;;;;;3.75;1.17;;;17.80;72.50;;;;;;6204228;23;20008;-67
2022/07/06 04:35:44;;;;;;;4.05;1.05;;;17.80;72.30;;;;;;6203467;23;20008;-68
2022/07/06 04:38:10;;;;;;;1.60;0.90;;;17.70;72.60;;;;;;6202887;23;20908;-67
2022/07/06 04:40:36;;;;;;;2.10;0.80;;;17.70;72.30;;;;;;6203113;23;20119;-68
2022/07/06 04:43:07;;;;;;;4.10;1.40;;;17.70;72.90;;;;;;6203168;23;20354;-67
2022/07/06 04:45:34;;;;;;;3.22;0.63;;;17.60;72.60;;;;;;6229299;23;20063;-67
2022/07/06 04:48:00;;;;;;;3.00;1.00;;;17.60;73.10;;;;;;6229063;23;20019;-67
2022/07/06 04:50:26;;;;;;;1.23;0.80;;;17.70;73.30;;;;;;6204177;23;20008;-67
2022/07/06 04:52:55;;;;;;;2.92;0.82;;;17.70;73.40;;;;;;6203730;23;20149;-67
2022/07/06 04:55:21;;;;;;;1.20;0.60;;;17.70;73.30;;;;;;6203748;23;20035;-67
2022/07/06 04:57:47;;;;;;;5.95;1.10;;;17.80;73.10;;;;;;6204003;23;20027;-67
2022/07/06 05:00:15;;;;;;;1.23;0.80;;;17.80;73.00;;;;;;6204010;23;20036;-67
2022/07/06 05:02:42;;;;;;;1.83;1.25;;;17.80;72.70;;;;;;6228401;23;20016;-67
2022/07/06 05:05:09;;;;;;;3.53;0.70;;;17.90;72.20;;;;;;6204177;23;20016;-68
2022/07/06 05:07:39;;;;;;;1.60;0.85;;;17.90;71.60;;;;;;6202780;23;20008;-67
2022/07/06 05:10:09;;;;;;;2.50;0.85;;;17.90;71.80;;;;;;6202621;23;20055;-67
2022/07/06 05:12:36;;;;;;;4.13;1.00;;;17.90;71.20;;;;;;6203793;23;20016;-67
2022/07/06 05:15:03;;;;;;;4.57;0.80;;;17.90;71.50;;;;;;6203172;23;20011;-67
2022/07/06 05:17:29;;;;;;;3.70;0.80;;;17.90;70.80;;;;;;6203591;23;20000;-67
2022/07/06 05:19:56;;;;;;;3.25;1.00;;;17.90;70.90;;;;;;6228858;23;20032;-68
2022/07/06 05:22:24;;;;;;;1.35;0.73;;;17.90;71.50;;;;;;6204709;23;20012;-67
2022/07/06 05:24:51;;;;;;;2.35;0.70;;;18.00;71.50;;;;;;6204290;23;20016;-67
2022/07/06 05:27:16;;;;;;;1.05;0.80;;;18.00;71.50;;;;;;6231584;23;20004;-67
2022/07/06 05:29:42;;;;;;;4.28;1.35;;;18.00;70.80;;;;;;6203446;23;20026;-68
2022/07/06 05:32:09;;;;;;;2.25;1.02;;;18.00;70.60;;;;;;6204061;23;20353;-67
2022/07/06 05:34:36;;;;;;;6.90;1.13;;;18.00;70.60;;;;;;6204113;23;20083;-67
2022/07/06 05:37:03;;;;;;;2.80;0.75;;;18.00;70.80;;;;;;6203468;23;20011;-68
2022/07/06 05:39:29;;;;;;;3.15;0.93;;;18.00;71.30;;;;;;6203491;23;20008;-67
2022/07/06 05:41:55;;;;;;;2.28;0.70;;;18.00;71.40;;;;;;6203546;23;20018;-67
2022/07/06 05:44:21;;;;;;;3.70;1.10;;;18.00;71.60;;;;;;6203629;23;20618;-67
2022/07/06 05:46:46;;;;;;;5.50;0.85;;;18.10;71.70;;;;;;6202961;23;20016;-67
2022/07/06 05:51:57;;;;;;;7.68;1.38;;;18.20;71.30;;;;;;6202950;23;20008;-67
2022/07/06 05:54:23;;;;;;;4.10;1.02;;;18.30;71.40;;;;;;6203631;23;20349;-67
2022/07/06 05:56:49;;;;;;;5.00;0.88;;;18.30;70.10;;;;;;6203190;23;20015;-67
2022/07/06 05:59:15;;;;;;;5.03;1.00;;;18.30;70.00;;;;;;6203231;23;20004;-67
2022/07/06 06:01:41;;;;;;;4.85;0.90;;;18.30;69.50;;;;;;6240800;23;20011;-67
2022/07/06 06:04:12;;;;;;;7.45;1.25;;;18.40;69.20;;;;;;6228381;23;20018;-67
2022/07/06 06:06:38;;;;;;;3.45;1.00;;;18.50;69.70;;;;;;6203198;23;20071;-67
2022/07/06 06:09:04;;;;;;;4.18;1.00;;;18.50;69.10;;;;;;6201869;23;20410;-67
2022/07/06 06:11:30;;;;;;;5.78;1.27;;;18.60;69.50;;;;;;6203152;23;20004;-67
2022/07/06 06:13:56;;;;;;;3.33;0.82;;;18.60;68.70;;;;;;6202686;23;20019;-67
2022/07/06 06:16:22;;;;;;;3.40;1.00;;;18.70;68.30;;;;;;6203385;23;20016;-68
2022/07/06 06:18:48;;;;;;;2.67;0.90;;;18.90;67.60;;;;;;6202660;23;20305;-67
2022/07/06 06:21:14;;;;;;;4.90;0.90;;;18.90;67.30;;;;;;6230739;23;20004;-67
2022/07/06 06:23:39;;;;;;;4.82;0.80;;;19.00;67.20;;;;;;6231044;23;20473;-68
2022/07/06 06:26:05;;;;;;;7.45;1.20;;;19.10;65.70;;;;;;6231221;23;20087;-68
2022/07/06 06:28:31;;;;;;;1.85;0.82;;;19.10;64.80;;;;;;6231232;23;20509;-67
2022/07/06 06:30:56;;;;;;;3.28;0.95;;;19.00;65.10;;;;;;6231080;23;20739;-66
2022/07/06 06:33:22;;;;;;;5.60;1.00;;;19.00;65.60;;;;;;6230219;23;20067;-66
2022/07/06 06:35:52;;;;;;;2.22;0.70;;;19.10;65.90;;;;;;6229109;23;20638;-67
2022/07/06 06:38:19;;;;;;;5.07;0.80;;;19.10;65.10;;;;;;6176599;23;20008;-67
2022/07/06 06:40:45;;;;;;;7.95;0.95;;;19.20;64.50;;;;;;6228908;23;20019;-67
2022/07/06 06:43:11;;;;;;;4.38;0.90;;;19.20;64.50;;;;;;6228910;23;20035;-67
2022/07/06 06:45:46;;;;;;;2.88;0.85;;;19.30;64.70;;;;;;6202760;23;20008;-67
2022/07/06 06:48:12;;;;;;;5.15;0.90;;;19.30;65.10;;;;;;6228699;23;20035;-67
2022/07/06 06:50:37;;;;;;;4.25;0.82;;;19.30;64.60;;;;;;6229369;23;20094;-67
2022/07/06 06:53:03;;;;;;;3.13;0.55;;;19.40;65.20;;;;;;6239639;23;20008;-67
2022/07/06 06:55:29;;;;;;;6.18;0.90;;;19.40;64.80;;;;;;6230473;23;20036;-67
2022/07/06 06:57:55;;;;;;;4.55;1.00;;;19.50;64.30;;;;;;6231027;23;20011;-67
2022/07/06 07:00:20;;;;;;;4.93;0.95;;;19.60;64.60;;;;;;6230420;23;20019;-67
2022/07/06 07:02:47;;;;;;;5.68;1.00;;;19.80;64.40;;;;;;6230409;23;20078;-67
2022/07/06 07:05:13;;;;;;;4.22;1.00;;;20.00;63.10;;;;;;6241283;23;20385;-67
2022/07/06 07:07:38;;;;;;;3.22;0.68;;;20.10;62.40;;;;;;6231099;23;20019;-68
2022/07/06 07:10:05;;;;;;;5.63;1.08;;;20.10;62.40;;;;;;6230182;23;20027;-67
2022/07/06 07:12:32;;;;;;;2.08;0.90;;;20.20;62.80;;;;;;6231172;23;20015;-68
2022/07/06 07:14:58;;;;;;;4.03;0.88;;;20.10;62.70;;;;;;6230400;23;20020;-67
2022/07/06 07:17:24;;;;;;;2.30;0.70;;;20.30;61.40;;;;;;6206178;23;20027;-67
2022/07/06 07:19:50;;;;;;;2.80;1.02;;;20.30;61.10;;;;;;6231529;23;20023;-67
2022/07/06 07:22:16;;;;;;;3.20;0.77;;;20.30;60.00;;;;;;6232368;23;20004;-67
2022/07/06 07:24:42;;;;;;;4.45;1.08;;;20.20;60.40;;;;;;6231915;23;20790;-68
2022/07/06 07:27:08;;;;;;;3.08;0.60;;;20.20;61.00;;;;;;6230652;23;20016;-67
2022/07/06 07:29:33;;;;;;;2.30;0.75;;;20.20;61.10;;;;;;6241316;23;20329;-68
2022/07/06 07:31:59;;;;;;;2.33;0.60;;;20.30;61.50;;;;;;6230074;23;20012;-67
2022/07/06 07:34:25;;;;;;;3.78;0.85;;;20.40;60.90;;;;;;6232128;23;20019;-67
2022/07/06 07:36:51;;;;;;;2.55;1.00;;;20.60;60.50;;;;;;6231241;23;20096;-67
2022/07/06 07:39:16;;;;;;;3.90;1.13;;;20.60;59.50;;;;;;6230027;23;20015;-68
2022/07/06 07:41:42;;;;;;;3.20;0.60;;;20.60;58.90;;;;;;6240441;23;20008;-67
2022/07/06 07:44:08;;;;;;;2.33;0.73;;;20.50;58.60;;;;;;6231905;23;20000;-67
2022/07/06 07:46:33;;;;;;;9.30;0.95;;;20.60;59.10;;;;;;6231808;23;20714;-67
2022/07/06 07:48:59;;;;;;;2.85;0.70;;;20.70;58.50;;;;;;6242045;23;20004;-67
2022/07/06 07:51:26;;;;;;;1.77;0.77;;;20.90;57.90;;;;;;6204938;23;20592;-68
2022/07/06 07:53:51;;;;;;;1.88;0.77;;;21.10;57.50;;;;;;6241805;23;20008;-67
2022/07/06 07:56:17;;;;;;;4.80;0.80;;;21.20;56.70;;;;;;6232261;23;20540;-67
2022/07/06 07:58:43;;;;;;;3.42;0.70;;;21.30;56.00;;;;;;6231226;23;20008;-67
2022/07/06 08:01:10;;;;;;;4.25;1.05;;;21.50;55.60;;;;;;6204010;23;20008;-68
2022/07/06 08:03:36;;;;;;;2.42;0.50;;;21.50;55.00;;;;;;6219875;23;20126;-68
2022/07/06 08:06:02;;;;;;;4.72;0.93;;;21.50;54.90;;;;;;6241709;23;20576;-68
2022/07/06 08:08:28;;;;;;;2.67;0.68;;;21.50;55.70;;;;;;6231498;23;20011;-68
2022/07/06 08:10:54;;;;;;;2.80;0.77;;;21.60;54.70;;;;;;6231338;23;20019;-67
2022/07/06 08:13:20;;;;;;;1.38;0.57;;;21.50;54.60;;;;;;6241383;23;20427;-69
2022/07/06 08:15:45;;;;;;;6.97;1.05;;;21.50;55.70;;;;;;6230511;23;20066;-70
2022/07/06 08:18:11;;;;;;;4.65;2.85;;;21.60;56.60;;;;;;6229884;23;20004;-70
2022/07/06 08:20:37;;;;;;;1.13;0.57;;;21.60;55.50;;;;;;6240932;23;20004;-70
2022/07/06 08:23:04;;;;;;;13.10;4.15;;;21.80;55.50;;;;;;6231716;23;20012;-70
2022/07/06 08:25:30;;;;;;;3.42;1.25;;;21.80;55.30;;;;;;6230948;23;20007;-71
2022/07/06 08:27:57;;;;;;;1.73;0.65;;;21.70;57.00;;;;;;6231505;23;20090;-69
2022/07/06 08:30:22;;;;;;;1.88;0.55;;;21.70;54.60;;;;;;6240428;23;20008;-70
2022/07/06 08:32:48;;;;;;;3.20;0.68;;;21.60;55.30;;;;;;6231070;23;20381;-68
2022/07/06 08:35:14;;;;;;;4.88;0.50;;;21.60;56.20;;;;;;6241410;23;19996;-68
2022/07/06 08:37:40;;;;;;;0.52;0.50;;;21.50;54.80;;;;;;6203861;23;20016;-68
2022/07/06 08:40:07;;;;;;;3.83;1.02;;;21.40;55.40;;;;;;6231305;23;20035;-68
2022/07/06 08:42:34;;;;;;;1.50;0.47;;;21.40;55.60;;;;;;6231733;23;20012;-69
2022/07/06 08:45:03;;;;;;;1.85;0.68;;;21.50;55.30;;;;;;6231069;23;20564;-69
2022/07/06 08:47:30;;;;;;;3.20;0.95;;;21.60;53.50;;;;;;6228580;23;20341;-69
2022/07/06 08:49:57;;;;;;;5.95;2.70;;;21.60;53.60;;;;;;6202147;23;20018;-70
2022/07/06 08:52:24;;;;;;;2.50;1.00;;;21.60;54.20;;;;;;6228171;23;20031;-70
2022/07/06 08:54:50;;;;;;;1.48;0.43;;;21.70;54.90;;;;;;6227810;23;20016;-69
2022/07/06 08:57:17;;;;;;;2.05;0.70;;;21.80;54.60;;;;;;6225294;23;20034;-68
2022/07/06 08:59:43;;;;;;;3.03;0.63;;;21.80;55.20;;;;;;6228755;23;20016;-69
2022/07/06 09:02:13;;;;;;;3.15;1.13;;;21.80;54.30;;;;;;6230430;23;20023;-68
2022/07/06 09:04:42;;;;;;;6.45;3.67;;;21.70;54.50;;;;;;6230203;23;20016;-69
2022/07/06 09:07:08;;;;;;;3.00;1.80;;;21.70;55.20;;;;;;6240593;23;20012;-69
2022/07/06 09:09:35;;;;;;;6.18;3.63;;;21.80;53.60;;;;;;6230237;23;20034;-69
2022/07/06 09:12:01;;;;;;;4.13;1.10;;;21.80;53.90;;;;;;6230850;23;20070;-68
2022/07/06 09:14:28;;;;;;;2.60;0.73;;;21.90;53.60;;;;;;6231050;23;20008;-68
2022/07/06 09:17:06;;;;;;;8.35;1.02;;;22.00;53.00;;;;;;6231737;23;20008;-68
2022/07/06 09:19:33;;;;;;;2.75;1.00;;;22.10;53.80;;;;;;6241075;23;20000;-68
2022/07/06 09:22:00;;;;;;;3.20;0.77;;;22.20;51.80;;;;;;6230526;23;20034;-68
2022/07/06 09:24:26;;;;;;;0.55;0.30;;;22.20;51.90;;;;;;6230212;23;20008;-66
2022/07/06 09:26:55;;;;;;;2.70;0.50;;;22.10;51.50;;;;;;6240266;23;20099;-68
2022/07/06 09:29:46;;;;;;;3.85;0.70;;;22.20;51.20;;;;;;6240475;23;20138;-68
2022/07/06 09:32:19;;;;;;;2.05;0.47;;;22.20;51.20;;;;;;6222502;23;20142;-68
2022/07/06 09:34:46;;;;;;;2.13;0.45;;;22.20;50.20;;;;;;6231599;23;20042;-68
2022/07/06 09:37:13;;;;;;;1.02;0.30;;;22.40;48.90;;;;;;6230211;23;20012;-67
2022/07/06 09:39:39;;;;;;;0.35;0.20;;;22.40;48.30;;;;;;6230905;23;20016;-68
2022/07/06 09:42:08;;;;;;;1.63;0.30;;;22.40;45.70;;;;;;6240910;23;20015;-68
2022/07/06 09:44:39;;;;;;;1.45;0.60;;;22.30;47.70;;;;;;6231885;23;20066;-68
2022/07/06 09:47:10;;;;;;;1.35;0.45;;;22.20;46.70;;;;;;6201880;23;20039;-68
2022/07/06 09:49:37;;;;;;;0.38;0.10;;;22.20;46.50;;;;;;6229818;23;20083;-68
2022/07/06 09:52:06;;;;;;;0.98;0.40;;;22.10;47.00;;;;;;6238974;23;20008;-67
2022/07/06 09:54:34;;;;;;;1.98;0.50;;;22.20;49.10;;;;;;6235794;23;20706;-72
2022/07/06 09:57:01;;;;;;;4.93;0.43;;;22.30;48.70;;;;;;6201237;23;20760;-70
2022/07/06 09:59:29;;;;;;;2.63;0.70;;;22.30;46.10;;;;;;6228348;23;20113;-72
2022/07/06 10:01:58;;;;;;;2.75;1.75;;;22.40;47.00;;;;;;6239645;23;20110;-72
2022/07/06 10:04:25;;;;;;;2.58;0.40;;;22.50;46.90;;;;;;6229654;23;20018;-71
2022/07/06 10:06:51;;;;;;;4.75;0.55;;;22.70;46.60;;;;;;6229733;23;20014;-71
2022/07/06 10:09:19;;;;;;;2.35;0.40;;;22.70;47.30;;;;;;6228869;22;20012;-71
2022/07/06 10:11:51;;;;;;;3.65;1.33;;;22.70;46.40;;;;;;6202608;23;20012;-71
2022/07/06 10:14:25;;;;;;;1.48;0.50;;;22.60;47.30;;;;;;6239816;23;20005;-72
2022/07/06 10:16:51;;;;;;;1.20;0.50;;;22.60;46.50;;;;;;6228726;23;20013;-72
2022/07/06 10:19:21;;;;;;;1.55;0.45;;;22.50;46.50;;;;;;6230613;23;20008;-72
2022/07/06 10:21:47;;;;;;;5.60;0.43;;;22.60;48.00;;;;;;6239697;23;20007;-76
2022/07/06 10:24:14;;;;;;;1.83;0.57;;;22.40;46.50;;;;;;6240162;23;20004;-73
2022/07/06 10:26:40;;;;;;;2.03;0.47;;;22.30;48.70;;;;;;6202293;23;20016;-71
2022/07/06 10:29:07;;;;;;;2.80;0.40;;;22.30;48.00;;;;;;6228047;23;20008;-72
2022/07/06 10:31:35;;;;;;;4.82;0.65;;;22.30;46.30;;;;;;6238319;23;20007;-73
2022/07/06 10:34:04;;;;;;;2.55;0.95;;;22.20;47.10;;;;;;6228491;23;20015;-73
2022/07/06 10:36:30;;;;;;;1.52;0.50;;;22.30;47.10;;;;;;6228242;23;20013;-75
2022/07/06 10:38:57;;;;;;;2.50;0.30;;;22.10;48.10;;;;;;6227011;23;20019;-69
2022/07/06 10:41:35;;;;;;;2.33;0.43;;;22.00;49.40;;;;;;6237782;23;20024;-72
2022/07/06 10:44:19;;;;;;;1.60;0.40;;;22.00;49.10;;;;;;6238069;23;20004;-71
2022/07/06 10:46:53;;;;;;;3.78;0.50;;;21.90;50.10;;;;;;6228008;23;20471;-71
2022/07/06 10:49:19;;;;;;;3.00;0.70;;;22.00;50.40;;;;;;6202066;23;20012;-72
2022/07/06 10:51:47;;;;;;;2.67;0.50;;;22.10;49.80;;;;;;6231805;23;20015;-72
2022/07/06 10:54:12;;;;;;;1.52;0.70;;;22.10;50.00;;;;;;6232443;23;20012;-73
2022/07/06 10:56:50;;;;;;;1.95;0.50;;;22.10;50.40;;;;;;6205682;23;20014;-72
2022/07/06 10:59:21;;;;;;;2.22;0.50;;;22.20;50.70;;;;;;6241449;23;20921;-71
2022/07/06 11:02:22;;;;;;;2.03;0.52;;;22.30;50.40;;;;;;6230860;23;20008;-73
2022/07/06 11:04:49;;;;;;;2.22;0.50;;;22.40;49.50;;;;;;6087774;23;20660;-68
2022/07/06 11:07:16;;;;;;;1.13;0.38;;;22.60;49.30;;;;;;6199992;23;20043;-71
2022/07/06 11:09:54;;;;;;;2.30;0.47;;;22.60;49.00;;;;;;6204358;23;20749;-70
2022/07/06 11:12:20;;;;;;;3.05;0.52;;;22.80;49.70;;;;;;6240587;23;20468;-71
2022/07/06 11:14:47;;;;;;;1.73;0.40;;;23.00;48.70;;;;;;6240671;23;20004;-71
2022/07/06 11:17:14;;;;;;;1.77;0.45;;;22.90;49.70;;;;;;6229590;23;20051;-71
2022/07/06 11:19:55;;;;;;;3.17;0.40;;;22.90;49.40;;;;;;6240799;23;20453;-72
2022/07/06 11:22:24;;;;;;;1.60;0.45;;;22.90;49.40;;;;;;6239802;23;20371;-71
2022/07/06 11:24:51;;;;;;;3.22;0.60;;;22.90;48.70;;;;;;6230459;23;20089;-71
2022/07/06 11:27:18;;;;;;;3.83;0.40;;;22.90;48.70;;;;;;6230863;23;20080;-70
2022/07/06 11:29:44;;;;;;;1.23;0.45;;;22.80;49.10;;;;;;6231653;23;20039;-72
2022/07/06 11:32:14;;;;;;;25.80;12.80;;;22.70;49.30;;;;;;6231434;23;20020;-71
2022/07/06 11:34:44;;;;;;;6.70;3.92;;;22.60;49.30;;;;;;6232472;23;20019;-72
2022/07/06 11:37:14;;;;;;;9.32;5.78;;;22.70;48.40;;;;;;6241977;23;20099;-72
2022/07/06 11:39:42;;;;;;;2.17;0.45;;;22.70;49.40;;;;;;6230811;23;20324;-72
2022/07/06 11:42:12;;;;;;;1.48;0.38;;;22.90;48.90;;;;;;6241892;23;20393;-75
2022/07/06 11:44:39;;;;;;;2.08;0.40;;;22.90;47.70;;;;;;6231096;23;20464;-70
2022/07/06 11:47:06;;;;;;;2.83;0.50;;;23.00;49.10;;;;;;6242445;23;20070;-72
2022/07/06 11:49:34;;;;;;;1.15;0.30;;;22.90;47.80;;;;;;6231652;23;20024;-71
2022/07/06 11:52:04;;;;;;;2.97;0.43;;;22.80;47.70;;;;;;6231573;23;20020;-71
2022/07/06 11:54:32;;;;;;;0.40;0.40;;;22.80;47.70;;;;;;6241596;23;20008;-71
2022/07/06 11:56:59;;;;;;;0.93;0.28;;;22.70;47.70;;;;;;6232218;23;20058;-71
2022/07/06 11:59:30;;;;;;;0.20;0.10;;;22.70;47.30;;;;;;6214319;23;20004;-72
2022/07/06 12:02:10;;;;;;;1.80;0.30;;;22.70;47.80;;;;;;6241862;23;20007;-72
2022/07/06 12:04:39;;;;;;;2.97;0.50;;;22.70;48.50;;;;;;6232300;23;20012;-72
2022/07/06 12:07:08;;;;;;;5.05;0.55;;;22.80;48.20;;;;;;6230987;23;20019;-72
2022/07/06 12:09:36;;;;;;;1.65;0.82;;;22.80;47.10;;;;;;6231421;22;20362;-72
2022/07/06 12:12:03;;;;;;;2.30;0.85;;;22.80;46.00;;;;;;6179215;23;20112;-72
2022/07/06 12:14:31;;;;;;;1.58;0.40;;;22.80;48.40;;;;;;6241335;23;20024;-72
2022/07/06 12:17:06;;;;;;;1.02;0.60;;;22.90;48.00;;;;;;6231557;23;20018;-72
2022/07/06 12:19:33;;;;;;;2.45;0.95;;;23.00;48.40;;;;;;6203862;23;20008;-72
2022/07/06 12:22:01;;;;;;;1.80;1.30;;;23.10;47.80;;;;;;6229936;23;20493;-72
2022/07/06 12:24:30;;;;;;;2.53;1.65;;;23.30;48.20;;;;;;6231356;23;20012;-72
2022/07/06 12:26:56;;;;;;;4.80;1.98;;;23.30;47.30;;;;;;6230519;23;20019;-73
2022/07/06 12:29:23;;;;;;;4.55;1.90;;;23.20;47.50;;;;;;6231433;23;20004;-73
2022/07/06 12:31:56;;;;;;;4.00;2.00;;;23.20;48.20;;;;;;6241035;23;20004;-73
2022/07/06 12:34:27;;;;;;;5.60;2.30;;;23.20;46.50;;;;;;6231079;23;20012;-72
2022/07/06 12:36:55;;;;;;;5.38;2.00;;;23.10;47.50;;;;;;6241694;23;20018;-72
2022/07/06 12:39:25;;;;;;;5.95;1.80;;;23.30;47.60;;;;;;6230474;23;20328;-71
2022/07/06 12:42:00;;;;;;;2.45;1.30;;;23.20;46.70;;;;;;6232008;23;20014;-78
2022/07/06 12:44:26;;;;;;;4.80;1.00;;;23.00;46.60;;;;;;6231592;23;20079;-74
2022/07/06 12:47:08;;;;;;;2.38;0.80;;;23.00;48.60;;;;;;6204472;23;20099;-74
2022/07/06 12:49:36;;;;;;;2.17;0.70;;;23.10;47.10;;;;;;6231663;23;20004;-73